Time;durP1;ratioP1;P1;durP2;ratioP2;P2;SDS_P1;SDS_P2;PMS_P1;PMS_P2;Temp;Humidity;BMP_temperature;BMP_pressure;BME280_temperature;BME280_humidity;BME280_pressure;Samples;Min_cycle;Max_cycle;Signal;HPM_P1;HPM_P2
2023/08/15 00:01:44;;;;;;;9.90;6.30;;;20.00;1.00;;;;;;5029699;28;20040;-81
2023/08/15 00:04:10;;;;;;;8.98;7.15;;;20.00;1.00;;;;;;5033277;28;20038;-81
2023/08/15 00:06:37;;;;;;;8.23;6.63;;;20.00;1.00;;;;;;5031619;28;20030;-81
2023/08/15 00:09:03;;;;;;;8.98;6.32;;;20.00;1.00;;;;;;5027455;28;20037;-81
2023/08/15 00:11:29;;;;;;;7.68;5.70;;;19.90;1.00;;;;;;5025649;28;20037;-82
2023/08/15 00:13:56;;;;;;;8.98;6.68;;;19.90;1.00;;;;;;5032164;28;20404;-81
2023/08/15 00:16:23;;;;;;;7.97;6.13;;;19.80;1.00;;;;;;5038232;28;20138;-82
2023/08/15 00:18:49;;;;;;;14.57;11.98;;;19.80;1.00;;;;;;5031867;28;20033;-80
2023/08/15 00:21:15;;;;;;;10.00;5.97;;;19.70;1.00;;;;;;5037411;28;20021;-81
2023/08/15 00:23:41;;;;;;;14.68;7.07;;;19.70;1.00;;;;;;5034330;28;20029;-81
2023/08/15 00:26:08;;;;;;;9.52;5.82;;;19.60;1.00;;;;;;5028324;28;20458;-81
2023/08/15 00:28:34;;;;;;;11.90;6.75;;;19.60;1.00;;;;;;5022327;28;20050;-81
2023/08/15 00:31:00;;;;;;;10.65;7.10;;;19.60;1.00;;;;;;5035113;28;20042;-81
2023/08/15 00:33:26;;;;;;;10.05;6.80;;;19.60;1.00;;;;;;5024427;28;20038;-81
2023/08/15 00:35:54;;;;;;;11.82;8.10;;;19.60;1.00;;;;;;5030908;28;20481;-81
2023/08/15 00:38:20;;;;;;;10.25;6.82;;;19.50;1.00;;;;;;5033403;28;20401;-81
2023/08/15 00:40:46;;;;;;;11.18;7.97;;;19.40;1.00;;;;;;5037869;28;20052;-81
2023/08/15 00:43:15;;;;;;;10.95;8.05;;;19.40;5.10;;;;;;5034964;28;20036;-81
2023/08/15 00:45:41;;;;;;;10.95;8.10;;;19.40;12.40;;;;;;5026474;28;20025;-81
2023/08/15 00:48:09;;;;;;;12.70;8.38;;;19.40;14.20;;;;;;5037822;28;20032;-81
2023/08/15 00:50:36;;;;;;;13.57;8.30;;;19.40;42.60;;;;;;5028031;28;20061;-81
2023/08/15 00:53:04;;;;;;;11.52;9.32;;;19.40;69.80;;;;;;5031284;28;20048;-81
2023/08/15 00:55:32;;;;;;;9.65;8.65;;;19.40;90.60;;;;;;5024760;28;20690;-81
2023/08/15 00:57:59;;;;;;;11.63;8.48;;;19.50;99.90;;;;;;5029889;28;20560;-81
2023/08/15 01:00:26;;;;;;;11.52;10.10;;;19.50;99.90;;;;;;5033266;28;20492;-82
2023/08/15 01:02:53;;;;;;;13.23;9.68;;;19.50;99.90;;;;;;5020850;28;20046;-81
2023/08/15 01:05:20;;;;;;;12.32;8.80;;;19.60;99.90;;;;;;5034724;28;20032;-81
2023/08/15 01:07:47;;;;;;;10.80;9.00;;;19.60;99.90;;;;;;5033517;28;20049;-81
2023/08/15 01:10:13;;;;;;;12.30;7.90;;;19.50;99.90;;;;;;5029614;28;20045;-81
2023/08/15 01:13:01;;;;;;;11.02;8.63;;;19.50;99.90;;;;;;5030128;28;20025;-81
2023/08/15 01:15:31;;;;;;;14.57;7.60;;;19.50;95.40;;;;;;5025471;28;20364;-81
2023/08/15 01:18:31;;;;;;;13.75;8.10;;;19.40;61.70;;;;;;5020109;28;20037;-80
2023/08/15 01:20:59;;;;;;;10.03;7.00;;;19.40;46.40;;;;;;5049078;28;20049;-81
2023/08/15 01:23:44;;;;;;;10.45;7.57;;;19.40;46.60;;;;;;5033898;28;20036;-82
2023/08/15 01:26:10;;;;;;;10.20;7.50;;;19.30;38.40;;;;;;5041945;28;20045;-81
2023/08/15 01:28:38;;;;;;;9.05;7.03;;;19.20;38.10;;;;;;5041410;28;20064;-80
2023/08/15 01:31:35;;;;;;;9.52;6.93;;;19.20;42.00;;;;;;5040010;28;20469;-79
2023/08/15 01:34:14;;;;;;;11.63;6.70;;;19.10;48.80;;;;;;5030081;28;20045;-79
2023/08/15 01:36:47;;;;;;;9.55;7.30;;;19.10;55.60;;;;;;5024112;28;20489;-79
2023/08/15 01:39:27;;;;;;;10.50;7.60;;;19.20;53.60;;;;;;5032135;28;20045;-80
2023/08/15 01:41:58;;;;;;;10.80;6.45;;;19.20;40.90;;;;;;5030639;28;20280;-80
2023/08/15 01:44:25;;;;;;;9.98;7.10;;;19.20;31.00;;;;;;5029816;28;20050;-79
2023/08/15 01:46:51;;;;;;;9.20;6.28;;;19.10;27.20;;;;;;5033454;28;20041;-80
2023/08/15 01:49:17;;;;;;;6.70;5.60;;;19.10;23.20;;;;;;5034453;28;20037;-80
2023/08/15 01:51:45;;;;;;;10.98;7.13;;;19.10;26.80;;;;;;5026994;28;20389;-80
2023/08/15 01:54:12;;;;;;;8.30;7.40;;;19.10;28.30;;;;;;5024900;28;20048;-80
2023/08/15 01:56:38;;;;;;;11.13;7.05;;;19.00;28.10;;;;;;5035183;28;20036;-80
2023/08/15 01:59:04;;;;;;;10.10;7.60;;;19.00;35.40;;;;;;5031925;28;20506;-80
2023/08/15 02:01:30;;;;;;;9.00;6.60;;;19.00;45.10;;;;;;5042501;28;20045;-80
2023/08/15 02:03:56;;;;;;;9.30;7.68;;;19.00;52.80;;;;;;5031266;28;20042;-80
2023/08/15 02:06:22;;;;;;;10.63;7.18;;;19.00;60.30;;;;;;5032954;28;20030;-79
2023/08/15 02:08:49;;;;;;;10.00;6.50;;;19.10;65.90;;;;;;5029850;28;20048;-80
2023/08/15 02:11:15;;;;;;;10.65;5.55;;;19.10;43.20;;;;;;5036831;28;20044;-79
2023/08/15 02:13:41;;;;;;;12.35;6.47;;;19.10;21.90;;;;;;5032492;28;20037;-80
2023/08/15 02:16:07;;;;;;;12.48;6.60;;;19.20;11.30;;;;;;5031873;28;20044;-80
2023/08/15 02:18:33;;;;;;;9.90;6.47;;;19.20;12.10;;;;;;5025690;28;20041;-80
2023/08/15 02:20:59;;;;;;;9.35;6.57;;;19.30;18.30;;;;;;5030249;28;20497;-80
2023/08/15 02:23:25;;;;;;;9.27;7.30;;;19.30;21.80;;;;;;5035508;28;20060;-80
2023/08/15 02:25:51;;;;;;;12.23;7.65;;;19.40;30.70;;;;;;5041385;28;20043;-79
2023/08/15 02:28:18;;;;;;;11.73;9.90;;;19.50;34.90;;;;;;5031428;28;20041;-78
2023/08/15 02:30:44;;;;;;;16.60;13.55;;;19.70;64.10;;;;;;5037978;28;20454;-80
2023/08/15 02:33:10;;;;;;;25.55;14.57;;;19.90;99.90;;;;;;5028364;28;20528;-80
2023/08/15 02:35:41;;;;;;;21.20;13.52;;;20.10;99.90;;;;;;5024918;28;20061;-80
2023/08/15 02:38:08;;;;;;;17.42;12.85;;;20.20;99.90;;;;;;5030177;28;20038;-80
2023/08/15 02:40:34;;;;;;;15.77;12.32;;;20.30;99.90;;;;;;5028876;28;20037;-80
2023/08/15 02:43:00;;;;;;;13.93;10.48;;;20.40;99.50;;;;;;5023845;28;20045;-80
2023/08/15 02:45:26;;;;;;;14.05;9.95;;;20.40;68.20;;;;;;5029033;28;20025;-79
2023/08/15 02:47:52;;;;;;;12.55;9.65;;;20.40;25.10;;;;;;5036024;28;20036;-80
2023/08/15 02:50:45;;;;;;;22.92;9.02;;;20.40;1.00;;;;;;5036375;28;20044;-80
2023/08/15 02:53:14;;;;;;;20.98;9.20;;;20.40;1.00;;;;;;5030168;28;20045;-80
2023/08/15 02:55:41;;;;;;;13.55;8.88;;;20.40;1.00;;;;;;5020379;28;20064;-80
2023/08/15 02:58:07;;;;;;;12.63;9.15;;;20.30;1.00;;;;;;5033749;28;20041;-80
2023/08/15 03:00:43;;;;;;;15.57;9.00;;;20.30;1.00;;;;;;5023627;28;20070;-81
2023/08/15 03:03:09;;;;;;;10.63;8.40;;;20.20;1.00;;;;;;5026381;28;20039;-80
2023/08/15 03:05:39;;;;;;;11.48;8.25;;;20.10;1.00;;;;;;5025810;28;20037;-80
2023/08/15 03:08:13;;;;;;;12.85;8.57;;;20.10;1.00;;;;;;5025644;28;20068;-80
2023/08/15 03:10:40;;;;;;;14.18;8.82;;;20.00;1.00;;;;;;5031971;28;20042;-80
2023/08/15 03:13:06;;;;;;;10.30;9.07;;;20.00;2.80;;;;;;5037428;28;20037;-80
2023/08/15 03:15:33;;;;;;;10.32;9.10;;;19.90;7.00;;;;;;5035607;28;20037;-82
2023/08/15 03:18:00;;;;;;;12.48;9.32;;;19.90;7.60;;;;;;5028674;28;20041;-80
2023/08/15 03:20:26;;;;;;;11.18;9.07;;;19.80;17.30;;;;;;5029754;28;20100;-80
2023/08/15 03:22:53;;;;;;;12.35;9.68;;;19.70;28.20;;;;;;5034876;28;20443;-80
2023/08/15 03:25:20;;;;;;;15.32;8.50;;;19.70;40.50;;;;;;5028548;28;20343;-81
2023/08/15 03:27:46;;;;;;;14.18;9.52;;;19.60;47.50;;;;;;5031619;28;20037;-81
2023/08/15 03:30:12;;;;;;;14.23;9.02;;;19.60;70.00;;;;;;5029851;28;20045;-80
2023/08/15 03:32:38;;;;;;;10.48;7.97;;;19.50;71.70;;;;;;5041073;28;20048;-81
2023/08/15 03:35:06;;;;;;;12.95;9.00;;;19.40;76.40;;;;;;5032370;28;20042;-81
2023/08/15 03:37:32;;;;;;;14.45;10.55;;;19.40;90.10;;;;;;5030803;28;20045;-80
2023/08/15 03:39:58;;;;;;;13.88;10.70;;;19.30;99.90;;;;;;5038675;28;20044;-81
2023/08/15 03:42:25;;;;;;;17.80;12.13;;;19.30;99.90;;;;;;5031371;28;20033;-81
2023/08/15 03:44:51;;;;;;;18.65;11.23;;;19.40;99.90;;;;;;5028480;28;20045;-80
2023/08/15 03:47:17;;;;;;;15.35;11.27;;;19.40;99.90;;;;;;5030956;28;20048;-81
2023/08/15 03:49:44;;;;;;;16.77;11.27;;;19.40;99.90;;;;;;5028308;28;20049;-81
2023/08/15 03:52:10;;;;;;;14.50;11.55;;;19.40;99.90;;;;;;5021548;28;20030;-81
2023/08/15 03:54:36;;;;;;;16.73;12.13;;;19.50;99.90;;;;;;5032786;28;20041;-81
2023/08/15 03:57:03;;;;;;;16.05;12.60;;;19.40;99.90;;;;;;5038920;28;20034;-81
2023/08/15 03:59:29;;;;;;;17.30;11.50;;;19.40;99.90;;;;;;5034824;28;20037;-80
2023/08/15 04:01:58;;;;;;;16.23;12.02;;;19.40;99.90;;;;;;5032846;28;20049;-80
2023/08/15 04:04:24;;;;;;;16.40;12.30;;;19.50;99.90;;;;;;5032797;28;20413;-81
2023/08/15 04:06:52;;;;;;;16.20;12.13;;;19.50;99.90;;;;;;5026370;28;20041;-80
2023/08/15 04:09:19;;;;;;;17.48;12.32;;;19.50;99.90;;;;;;5027979;28;20048;-80
2023/08/15 04:11:45;;;;;;;16.23;11.85;;;19.50;99.90;;;;;;5025140;28;20038;-80
2023/08/15 04:14:11;;;;;;;16.40;12.25;;;19.50;99.90;;;;;;5026719;28;20041;-80
2023/08/15 04:16:38;;;;;;;17.10;12.77;;;19.60;99.90;;;;;;5038346;28;20041;-81
2023/08/15 04:19:04;;;;;;;15.50;12.68;;;19.60;99.90;;;;;;5034880;28;20501;-81
2023/08/15 04:21:30;;;;;;;17.88;12.90;;;19.60;99.90;;;;;;5037826;28;20548;-80
2023/08/15 04:23:57;;;;;;;16.08;12.38;;;19.50;99.90;;;;;;5029721;28;20120;-80
2023/08/15 04:26:23;;;;;;;19.55;14.00;;;19.50;99.90;;;;;;5026643;28;20034;-81
2023/08/15 04:28:49;;;;;;;23.58;12.32;;;19.50;99.90;;;;;;5027824;28;20053;-81
2023/08/15 04:31:15;;;;;;;18.52;12.68;;;19.50;99.90;;;;;;5034740;28;20049;-81
2023/08/15 04:33:41;;;;;;;17.67;12.95;;;19.50;99.90;;;;;;5027792;28;20048;-81
2023/08/15 04:36:07;;;;;;;14.57;13.02;;;19.50;99.90;;;;;;5026304;28;20049;-81
2023/08/15 04:38:34;;;;;;;18.92;13.27;;;19.50;99.90;;;;;;5040584;28;20060;-81
2023/08/15 04:41:00;;;;;;;20.85;14.45;;;19.50;99.90;;;;;;5037170;28;20068;-81
2023/08/15 04:43:27;;;;;;;24.45;13.68;;;19.50;99.90;;;;;;5035357;28;20334;-81
2023/08/15 04:45:53;;;;;;;24.83;13.98;;;19.50;99.90;;;;;;5029524;28;20052;-81
2023/08/15 04:48:19;;;;;;;17.33;12.80;;;19.50;99.90;;;;;;5036271;28;20376;-81
2023/08/15 04:50:45;;;;;;;18.23;12.90;;;19.50;99.90;;;;;;5035168;28;20072;-81
2023/08/15 04:53:11;;;;;;;18.63;12.93;;;19.50;99.90;;;;;;5023306;28;20037;-81
2023/08/15 04:55:38;;;;;;;13.98;12.38;;;19.50;99.90;;;;;;5025818;28;20050;-81
2023/08/15 04:58:09;;;;;;;19.30;12.40;;;19.60;99.90;;;;;;5032978;28;20050;-81
2023/08/15 05:00:35;;;;;;;15.60;11.43;;;19.60;99.90;;;;;;5033172;28;20053;-81
2023/08/15 05:03:03;;;;;;;17.67;11.32;;;19.70;99.90;;;;;;5028523;28;20033;-81
2023/08/15 05:05:30;;;;;;;12.68;9.07;;;19.70;99.90;;;;;;5030850;28;20033;-81
2023/08/15 05:07:56;;;;;;;14.43;9.23;;;19.80;92.50;;;;;;5037036;28;20502;-81
2023/08/15 05:10:22;;;;;;;13.77;7.88;;;20.30;40.30;;;;;;5033444;28;20057;-81
2023/08/15 05:12:48;;;;;;;14.05;6.65;;;21.20;1.00;;;;;;5030427;28;20045;-82
2023/08/15 05:15:14;;;;;;;9.00;5.65;;;22.00;99.90;;;;;;5031756;28;20136;-82
2023/08/15 05:17:43;;;;;;;6.50;4.88;;;22.60;99.90;;;;;;5027260;28;20064;-82
2023/08/15 05:20:10;;;;;;;6.47;4.20;;;23.10;99.90;;;;;;5021287;28;20502;-78
2023/08/15 05:22:36;;;;;;;6.68;4.43;;;23.50;99.90;;;;;;5040702;28;20056;-78
2023/08/15 05:25:03;;;;;;;6.40;4.38;;;23.90;34.80;;;;;;5032495;28;20766;-81
2023/08/15 05:27:33;;;;;;;7.05;4.25;;;24.30;1.00;;;;;;5027202;28;20048;-81
2023/08/15 05:29:59;;;;;;;5.38;4.38;;;24.30;1.00;;;;;;5032508;28;20063;-81
2023/08/15 05:32:25;;;;;;;5.30;3.95;;;24.10;1.00;;;;;;5035166;28;20045;-82
2023/08/15 05:34:51;;;;;;;4.88;3.97;;;23.20;28.10;;;;;;5025362;28;20026;-82
2023/08/15 05:37:19;;;;;;;4.85;3.55;;;23.60;29.20;;;;;;5022364;28;20415;-81
2023/08/15 05:39:45;;;;;;;4.28;3.08;;;24.10;1.00;;;;;;5029664;28;20466;-81
2023/08/15 05:42:17;;;;;;;5.78;2.97;;;24.60;1.00;;;;;;5031905;28;20395;-82
2023/08/15 05:44:45;;;;;;;4.25;3.00;;;24.60;1.00;;;;;;5030101;28;20045;-82
2023/08/15 05:47:11;;;;;;;7.40;3.40;;;24.90;1.00;;;;;;5035744;28;20025;-82
2023/08/15 05:49:38;;;;;;;6.32;3.17;;;25.10;1.00;;;;;;5035030;28;20437;-82
2023/08/15 05:52:04;;;;;;;4.70;3.35;;;25.30;99.90;;;;;;5028528;28;20048;-81
2023/08/15 05:54:30;;;;;;;5.15;3.45;;;24.50;1.00;;;;;;5022275;28;20038;-82
2023/08/15 05:56:56;;;;;;;5.07;3.25;;;24.30;1.00;;;;;;5029822;28;20045;-81
2023/08/15 05:59:22;;;;;;;8.32;4.22;;;25.30;1.00;;;;;;5025000;28;20054;-82
2023/08/15 06:01:50;;;;;;;3.97;3.38;;;25.60;99.90;;;;;;5022061;28;20041;-81
2023/08/15 06:04:16;;;;;;;4.20;3.08;;;25.80;99.90;;;;;;5024832;28;20049;-82
2023/08/15 06:06:43;;;;;;;5.97;3.45;;;26.50;99.90;;;;;;5023849;28;20033;-81
2023/08/15 06:09:09;;;;;;;5.35;3.58;;;27.10;99.90;;;;;;5026546;28;20041;-80
2023/08/15 06:11:35;;;;;;;5.03;3.45;;;27.00;99.90;;;;;;5025804;28;20041;-80
2023/08/15 06:14:01;;;;;;;5.30;3.20;;;26.90;99.90;;;;;;5029923;28;20116;-80
2023/08/15 06:16:27;;;;;;;4.65;3.00;;;27.20;99.90;;;;;;5024269;28;20030;-80
2023/08/15 06:18:53;;;;;;;3.95;2.80;;;27.60;99.90;;;;;;5026270;28;20474;-81
2023/08/15 06:21:19;;;;;;;5.15;3.03;;;27.60;99.90;;;;;;5024388;28;20026;-81
2023/08/15 06:23:45;;;;;;;5.45;2.70;;;27.70;45.30;;;;;;5029503;28;20033;-81
2023/08/15 06:26:12;;;;;;;4.47;2.70;;;27.60;72.30;;;;;;5032923;28;20044;-80
2023/08/15 06:28:41;;;;;;;4.25;2.50;;;27.60;29.50;;;;;;5041605;28;20049;-79
2023/08/15 06:31:07;;;;;;;5.28;2.53;;;27.70;35.90;;;;;;5040852;28;20045;-81
2023/08/15 06:33:33;;;;;;;4.65;3.08;;;27.20;71.30;;;;;;5032302;28;20048;-79
2023/08/15 06:35:59;;;;;;;5.05;2.75;;;27.10;94.30;;;;;;5028388;28;20025;-80
2023/08/15 06:38:25;;;;;;;4.10;2.55;;;27.20;55.30;;;;;;5030356;28;20040;-81
2023/08/15 06:40:51;;;;;;;3.92;1.98;;;27.70;49.90;;;;;;5028048;28;20383;-81
2023/08/15 06:43:17;;;;;;;3.90;2.63;;;27.80;13.30;;;;;;5026088;28;20049;-80
2023/08/15 06:45:44;;;;;;;5.03;2.53;;;28.00;1.00;;;;;;5020292;28;20034;-81
2023/08/15 06:48:10;;;;;;;5.25;2.72;;;27.90;1.00;;;;;;5034329;28;20026;-84
2023/08/15 06:50:36;;;;;;;5.63;2.35;;;28.20;1.00;;;;;;5039038;28;20049;-87
2023/08/15 06:53:03;;;;;;;4.85;1.67;;;28.10;1.00;;;;;;5033447;28;20026;-87
2023/08/15 06:55:29;;;;;;;5.30;1.90;;;28.00;1.00;;;;;;5038810;28;20046;-86
2023/08/15 06:57:55;;;;;;;3.35;2.35;;;28.00;1.00;;;;;;5042412;28;20038;-85
2023/08/15 07:00:21;;;;;;;7.22;2.40;;;28.50;1.00;;;;;;5032061;28;20068;-86
2023/08/15 07:02:47;;;;;;;2.35;1.77;;;28.90;1.00;;;;;;5027513;28;20061;-85
2023/08/15 07:05:13;;;;;;;3.95;1.98;;;29.10;1.00;;;;;;5037297;28;20041;-86
2023/08/15 07:07:40;;;;;;;3.63;1.50;;;28.90;1.00;;;;;;5037117;28;20030;-85
2023/08/15 07:10:06;;;;;;;2.78;2.15;;;29.20;1.00;;;;;;5038362;28;20048;-86
2023/08/15 07:12:33;;;;;;;6.57;1.85;;;29.30;1.00;;;;;;5042007;28;20409;-87
2023/08/15 07:15:00;;;;;;;3.00;1.50;;;29.90;1.00;;;;;;5041669;28;20044;-86
2023/08/15 07:17:26;;;;;;;3.00;1.50;;;30.00;99.90;;;;;;5034385;28;20030;-86
2023/08/15 07:19:53;;;;;;;3.53;1.60;;;29.60;1.00;;;;;;5026265;28;20033;-85
2023/08/15 07:22:19;;;;;;;2.63;1.20;;;29.80;1.00;;;;;;5037848;28;20033;-86
2023/08/15 07:24:45;;;;;;;2.30;1.40;;;29.40;1.00;;;;;;5031754;28;20038;-86
2023/08/15 07:27:11;;;;;;;4.80;1.65;;;29.40;1.00;;;;;;5027799;28;20052;-86
2023/08/15 07:29:37;;;;;;;3.08;1.30;;;29.50;1.00;;;;;;5024737;28;20040;-86
2023/08/15 07:32:06;;;;;;;4.38;1.63;;;29.70;99.90;;;;;;5039709;28;20037;-86
2023/08/15 07:34:32;;;;;;;3.45;1.45;;;29.20;99.90;;;;;;5033085;28;20064;-82
2023/08/15 07:36:58;;;;;;;1.83;1.25;;;29.20;1.00;;;;;;5032662;28;20033;-84
2023/08/15 07:39:24;;;;;;;2.97;1.48;;;29.30;1.00;;;;;;5037484;28;20041;-85
2023/08/15 07:41:51;;;;;;;2.63;1.88;;;29.30;1.00;;;;;;5034307;28;20030;-86
2023/08/15 07:44:17;;;;;;;2.92;1.60;;;29.50;99.90;;;;;;5026003;28;20030;-85
2023/08/15 07:46:43;;;;;;;3.05;1.65;;;29.60;99.90;;;;;;5029050;28;20390;-86
2023/08/15 07:49:10;;;;;;;5.38;1.52;;;29.60;99.90;;;;;;5032443;28;20041;-86
2023/08/15 07:51:36;;;;;;;2.60;1.60;;;29.20;99.90;;;;;;5026417;28;20033;-85
2023/08/15 07:54:03;;;;;;;2.42;1.38;;;28.70;99.90;;;;;;5029639;28;20041;-85
2023/08/15 07:56:30;;;;;;;2.22;1.48;;;28.40;1.00;;;;;;5041061;28;20477;-86
2023/08/15 07:58:56;;;;;;;2.45;1.35;;;28.40;1.00;;;;;;5034790;28;20057;-85
2023/08/15 08:01:23;;;;;;;3.72;1.42;;;28.60;1.00;;;;;;5026819;28;20380;-86
2023/08/15 08:03:49;;;;;;;2.58;1.58;;;28.90;1.00;;;;;;5030461;28;20489;-86
2023/08/15 08:06:15;;;;;;;3.42;1.40;;;29.40;99.90;;;;;;5035269;28;20029;-85
2023/08/15 08:08:41;;;;;;;2.47;1.33;;;29.20;99.90;;;;;;5028356;28;20037;-86
2023/08/15 08:11:07;;;;;;;1.88;1.33;;;29.50;99.90;;;;;;5021270;28;20048;-86
2023/08/15 08:13:34;;;;;;;3.20;1.15;;;29.50;99.90;;;;;;5027072;28;20040;-86
2023/08/15 08:16:00;;;;;;;4.43;1.48;;;28.90;99.90;;;;;;5036360;28;20054;-86
2023/08/15 08:18:26;;;;;;;3.47;1.45;;;28.80;1.00;;;;;;5035620;28;20045;-87
2023/08/15 08:20:52;;;;;;;2.75;1.30;;;29.00;99.90;;;;;;5031990;28;20482;-87
2023/08/15 08:23:18;;;;;;;3.63;1.80;;;28.70;1.00;;;;;;5037105;28;20488;-86
2023/08/15 08:25:45;;;;;;;6.60;2.22;;;28.50;1.00;;;;;;5029589;28;20033;-86
2023/08/15 08:28:13;;;;;;;6.80;2.10;;;28.00;1.00;;;;;;5026987;28;20026;-85
2023/08/15 08:30:42;;;;;;;2.95;1.90;;;27.80;1.00;;;;;;5033631;28;20057;-87
2023/08/15 08:33:09;;;;;;;5.60;2.10;;;27.40;1.00;;;;;;5029448;28;20030;-86
2023/08/15 08:35:35;;;;;;;3.80;2.40;;;27.30;1.00;;;;;;5021155;28;20395;-86
2023/08/15 08:38:02;;;;;;;4.82;1.95;;;27.30;1.00;;;;;;5038005;28;20036;-86
2023/08/15 08:40:28;;;;;;;4.60;2.15;;;27.50;1.00;;;;;;5038409;28;20036;-85
2023/08/15 08:42:54;;;;;;;5.47;2.20;;;28.20;1.00;;;;;;5032837;28;20401;-86
2023/08/15 08:45:25;;;;;;;3.80;1.90;;;28.60;1.00;;;;;;5028561;28;20038;-86
2023/08/15 08:47:52;;;;;;;3.20;1.80;;;29.50;99.90;;;;;;5035434;28;20044;-83
2023/08/15 08:50:18;;;;;;;2.00;1.42;;;30.00;99.90;;;;;;5032864;28;20053;-86
2023/08/15 08:52:50;;;;;;;3.33;1.33;;;30.00;99.90;;;;;;5027961;28;20375;-85
2023/08/15 08:55:21;;;;;;;5.85;2.20;;;30.00;99.90;;;;;;5025212;28;20040;-84
2023/08/15 08:57:52;;;;;;;3.20;1.58;;;29.70;99.90;;;;;;5027638;28;20033;-86
2023/08/15 09:00:25;;;;;;;2.75;1.67;;;29.90;99.90;;;;;;5035505;28;20051;-85
2023/08/15 09:02:52;;;;;;;2.03;1.40;;;30.40;99.90;;;;;;5032716;28;20482;-86
2023/08/15 09:05:18;;;;;;;5.65;2.25;;;30.10;99.90;;;;;;5039606;28;20340;-86
2023/08/15 09:07:45;;;;;;;5.18;1.70;;;29.70;99.90;;;;;;5032782;28;20037;-84
2023/08/15 09:10:11;;;;;;;5.13;1.90;;;30.70;99.90;;;;;;5025921;28;20040;-85
2023/08/15 09:12:39;;;;;;;3.05;1.13;;;31.00;99.90;;;;;;5033671;28;20029;-87
2023/08/15 09:15:07;;;;;;;2.60;1.48;;;31.00;99.90;;;;;;5031532;28;20458;-84
2023/08/15 09:17:33;;;;;;;4.72;1.38;;;30.70;99.90;;;;;;5023455;28;20033;-86
2023/08/15 09:20:11;;;;;;;3.97;1.48;;;30.30;99.90;;;;;;5025392;28;20060;-87
2023/08/15 09:22:44;;;;;;;6.13;1.70;;;30.00;99.90;;;;;;5040923;28;20038;-87
2023/08/15 09:25:11;;;;;;;5.10;1.50;;;29.70;99.90;;;;;;5054907;28;20216;-84
2023/08/15 09:27:39;;;;;;;2.45;1.05;;;29.70;99.90;;;;;;5052723;28;20026;-86
2023/08/15 09:30:14;;;;;;;2.42;1.10;;;29.60;99.90;;;;;;5031398;28;20041;-86
2023/08/15 09:32:41;;;;;;;4.25;1.58;;;30.30;99.90;;;;;;5035979;28;20017;-84
2023/08/15 09:35:12;;;;;;;2.47;1.60;;;30.60;99.90;;;;;;5044699;28;20036;-87
2023/08/15 09:37:44;;;;;;;2.85;1.50;;;29.90;99.90;;;;;;5033557;28;20375;-86
2023/08/15 09:40:31;;;;;;;3.75;1.13;;;29.30;99.90;;;;;;5034526;28;20037;-86
2023/08/15 09:42:57;;;;;;;3.28;1.23;;;29.50;99.90;;;;;;5030102;28;20037;-87
2023/08/15 09:45:23;;;;;;;4.28;1.30;;;29.90;99.90;;;;;;5026916;28;20364;-85
2023/08/15 09:47:50;;;;;;;3.22;1.40;;;29.60;99.90;;;;;;5033856;28;20037;-87
2023/08/15 09:50:16;;;;;;;3.00;1.10;;;29.30;99.90;;;;;;5032674;28;20038;-85
2023/08/15 09:52:44;;;;;;;2.53;1.10;;;29.10;99.90;;;;;;5030573;28;20025;-85
2023/08/15 09:55:12;;;;;;;4.15;1.30;;;28.80;99.90;;;;;;5022214;28;20075;-87
2023/08/15 09:57:40;;;;;;;2.33;1.45;;;28.70;99.90;;;;;;5032722;28;20034;-86
2023/08/15 10:00:11;;;;;;;5.13;1.65;;;29.10;99.90;;;;;;5025512;28;20049;-86
2023/08/15 10:02:59;;;;;;;2.42;1.40;;;30.00;99.90;;;;;;5029997;28;20045;-86
2023/08/15 10:05:32;;;;;;;3.53;1.67;;;30.30;99.90;;;;;;5036885;28;20029;-86
2023/08/15 10:07:59;;;;;;;2.85;1.25;;;29.90;99.90;;;;;;5034940;28;20053;-86
2023/08/15 10:10:27;;;;;;;3.80;1.77;;;29.70;99.90;;;;;;5029605;28;20521;-86
2023/08/15 10:12:54;;;;;;;2.38;1.60;;;30.30;99.90;;;;;;5035593;28;20042;-81
2023/08/15 10:15:21;;;;;;;4.30;2.10;;;31.10;99.90;;;;;;5031987;28;20026;-86
2023/08/15 10:17:49;;;;;;;3.17;1.63;;;30.80;99.90;;;;;;5025135;28;20129;-86
2023/08/15 10:20:18;;;;;;;2.35;1.42;;;30.50;99.90;;;;;;5021876;28;20044;-86
2023/08/15 10:22:48;;;;;;;8.70;1.80;;;30.10;99.90;;;;;;5031330;28;20033;-84
2023/08/15 10:25:36;;;;;;;2.45;1.40;;;29.50;99.90;;;;;;5022395;28;20053;-87
2023/08/15 10:28:10;;;;;;;5.63;2.03;;;29.50;99.90;;;;;;5031942;28;20059;-86
2023/08/15 10:30:41;;;;;;;3.08;2.03;;;29.90;99.90;;;;;;5040167;28;20565;-86
2023/08/15 10:33:15;;;;;;;2.40;1.85;;;30.00;99.90;;;;;;5035319;28;20037;-86
2023/08/15 10:35:56;;;;;;;6.78;2.13;;;29.90;99.90;;;;;;5031894;28;20462;-86
2023/08/15 10:38:25;;;;;;;3.63;2.00;;;30.20;99.90;;;;;;5032456;28;20033;-87
2023/08/15 10:40:53;;;;;;;4.47;2.17;;;30.40;99.90;;;;;;5036330;28;20044;-87
2023/08/15 10:43:25;;;;;;;4.85;1.92;;;29.90;99.90;;;;;;5027373;28;20048;-86
2023/08/15 10:45:59;;;;;;;5.30;2.67;;;29.90;99.90;;;;;;5023042;28;20037;-86
2023/08/15 10:48:49;;;;;;;4.00;2.10;;;30.10;99.90;;;;;;5040876;28;20045;-87
2023/08/15 10:51:27;;;;;;;6.78;2.35;;;30.00;99.90;;;;;;5037557;28;20746;-86
2023/08/15 10:54:04;;;;;;;3.20;2.47;;;29.60;99.90;;;;;;5035148;28;20037;-87
2023/08/15 10:56:37;;;;;;;6.13;2.90;;;29.40;99.90;;;;;;5033012;28;20089;-86
2023/08/15 10:59:11;;;;;;;5.13;2.25;;;29.50;99.90;;;;;;5034422;28;20057;-85
2023/08/15 11:01:39;;;;;;;3.50;2.10;;;29.70;99.90;;;;;;5026316;28;20037;-86
2023/08/15 11:04:10;;;;;;;4.28;3.15;;;29.80;99.90;;;;;;5028085;28;20029;-85
2023/08/15 11:06:47;;;;;;;4.10;2.28;;;30.00;99.90;;;;;;5030029;28;20034;-86
2023/08/15 11:09:13;;;;;;;4.93;2.67;;;30.10;99.90;;;;;;5028998;28;20485;-85
2023/08/15 11:11:40;;;;;;;4.35;2.50;;;29.70;99.90;;;;;;5034731;28;20367;-86
2023/08/15 11:14:24;;;;;;;5.07;2.05;;;29.60;99.90;;;;;;5040222;28;20032;-87
2023/08/15 11:16:50;;;;;;;5.70;2.47;;;29.40;99.90;;;;;;5034690;28;20040;-86
2023/08/15 11:19:19;;;;;;;3.97;1.83;;;29.20;99.90;;;;;;5032556;28;20033;-86
2023/08/15 11:21:47;;;;;;;3.60;2.45;;;28.80;99.90;;;;;;5034470;28;20033;-86
2023/08/15 11:24:14;;;;;;;5.63;2.00;;;28.70;99.90;;;;;;5036104;28;20034;-84
2023/08/15 11:26:43;;;;;;;7.00;3.30;;;28.40;99.90;;;;;;5027403;28;20030;-85
2023/08/15 11:29:10;;;;;;;3.90;2.33;;;27.80;1.00;;;;;;5023668;28;20046;-85
2023/08/15 11:31:37;;;;;;;5.05;1.80;;;26.90;1.00;;;;;;5039893;28;20043;-85
2023/08/15 11:34:04;;;;;;;3.83;1.63;;;26.00;1.00;;;;;;5037564;28;20040;-85
2023/08/15 11:36:31;;;;;;;3.83;1.75;;;25.50;1.00;;;;;;5029900;28;20037;-86
2023/08/15 11:39:00;;;;;;;3.13;1.52;;;25.30;1.00;;;;;;5039538;28;20366;-85
2023/08/15 11:41:26;;;;;;;4.72;1.70;;;25.10;1.00;;;;;;5036670;28;20044;-85
2023/08/15 11:43:52;;;;;;;4.50;1.90;;;24.90;13.50;;;;;;5035746;28;20406;-83
2023/08/15 11:46:18;;;;;;;3.15;2.08;;;24.70;26.80;;;;;;5030485;28;20276;-82
2023/08/15 11:48:45;;;;;;;2.38;1.70;;;24.80;61.60;;;;;;5046287;28;20029;-86
2023/08/15 11:51:17;;;;;;;3.28;1.65;;;25.00;30.70;;;;;;5026067;28;20049;-84
2023/08/15 11:53:52;;;;;;;3.35;2.08;;;25.20;7.20;;;;;;5038837;28;20044;-85
2023/08/15 11:56:19;;;;;;;7.18;2.33;;;25.30;7.60;;;;;;5050125;28;20104;-86
2023/08/15 11:58:45;;;;;;;3.80;1.50;;;25.50;1.00;;;;;;5039551;28;20046;-84
2023/08/15 12:01:11;;;;;;;3.85;1.50;;;25.80;1.00;;;;;;5047775;28;20037;-84
2023/08/15 12:03:39;;;;;;;6.18;2.40;;;26.10;1.00;;;;;;5039996;28;20045;-86
2023/08/15 12:06:07;;;;;;;4.07;2.10;;;26.40;1.00;;;;;;5045647;28;20037;-85
2023/08/15 12:08:33;;;;;;;4.10;2.72;;;26.70;1.00;;;;;;5042002;28;20076;-82
2023/08/15 12:11:08;;;;;;;2.47;1.67;;;26.90;1.00;;;;;;5030781;28;20060;-81
2023/08/15 12:13:37;;;;;;;3.58;1.52;;;27.00;1.00;;;;;;5025002;28;20029;-83
2023/08/15 12:16:04;;;;;;;7.35;1.35;;;27.10;1.00;;;;;;5033561;28;20029;-85
2023/08/15 12:18:31;;;;;;;18.13;8.77;;;27.20;1.00;;;;;;5034338;28;20384;-86
2023/08/15 12:20:58;;;;;;;14.57;8.68;;;27.60;1.00;;;;;;5034452;28;20041;-86
2023/08/15 12:23:25;;;;;;;7.47;2.95;;;27.80;1.00;;;;;;5036322;28;20401;-86
2023/08/15 12:25:52;;;;;;;5.35;1.98;;;27.90;1.00;;;;;;5027790;28;20041;-85
2023/08/15 12:28:18;;;;;;;5.28;2.83;;;28.40;1.00;;;;;;5028938;28;20052;-84
2023/08/15 12:30:46;;;;;;;9.10;4.88;;;28.20;99.90;;;;;;5032118;28;20052;-85
2023/08/15 12:33:12;;;;;;;8.80;4.88;;;28.10;99.90;;;;;;5027001;28;20056;-86
2023/08/15 12:35:38;;;;;;;6.13;2.10;;;28.30;99.90;;;;;;5027096;28;20041;-82
2023/08/15 12:38:04;;;;;;;3.33;1.33;;;28.50;1.00;;;;;;5035950;28;20036;-86
2023/08/15 12:40:31;;;;;;;3.33;1.95;;;28.20;99.90;;;;;;5042186;28;20402;-87
2023/08/15 12:43:00;;;;;;;7.18;3.30;;;27.90;1.00;;;;;;5035287;28;20042;-85
2023/08/15 12:45:27;;;;;;;;;;;28.00;1.00;;;;;;5028880;28;20032;-86
2023/08/15 12:47:54;;;;;;;9.75;3.20;;;27.90;99.90;;;;;;5035546;28;19915;-85
2023/08/15 12:50:20;;;;;;;16.33;7.30;;;27.70;1.00;;;;;;5031336;28;20037;-86